Time;durP1;ratioP1;P1;durP2;ratioP2;P2;SDS_P1;SDS_P2;PMS_P1;PMS_P2;Temp;Humidity;BMP_temperature;BMP_pressure;BME280_temperature;BME280_humidity;BME280_pressure;Samples;Min_cycle;Max_cycle;Signal;HPM_P1;HPM_P2
2022/05/08 00:02:18;;;;;;;9.27;3.50;;;12.70;99.90;;;;;;5067681;28;20032;-67
2022/05/08 00:04:45;;;;;;;8.00;3.10;;;12.60;99.90;;;;;;5065162;28;20090;-67
2022/05/08 00:07:11;;;;;;;10.60;3.28;;;12.60;99.90;;;;;;5067058;28;20033;-66
2022/05/08 00:09:37;;;;;;;11.95;2.70;;;12.60;99.90;;;;;;5066572;28;20381;-67
2022/05/08 00:12:03;;;;;;;8.77;3.03;;;12.60;99.90;;;;;;5067629;28;20111;-67
2022/05/08 00:14:29;;;;;;;9.65;3.25;;;12.50;99.90;;;;;;5066520;28;20056;-68
2022/05/08 00:16:54;;;;;;;8.93;3.25;;;12.50;99.90;;;;;;5066915;28;20433;-67
2022/05/08 00:19:20;;;;;;;8.52;2.92;;;12.40;99.90;;;;;;5066785;28;20067;-67
2022/05/08 00:21:45;;;;;;;6.18;2.67;;;12.40;99.90;;;;;;5066661;28;20127;-68
2022/05/08 00:24:11;;;;;;;8.77;3.33;;;12.40;99.90;;;;;;5066123;28;20040;-68
2022/05/08 00:26:36;;;;;;;9.27;3.33;;;12.40;99.90;;;;;;5065853;28;20147;-67
2022/05/08 00:29:02;;;;;;;6.07;2.85;;;12.40;99.90;;;;;;5066867;28;20029;-67
2022/05/08 00:31:29;;;;;;;10.23;3.78;;;12.30;99.90;;;;;;5066962;28;20041;-67
2022/05/08 00:33:55;;;;;;;11.40;3.63;;;12.30;99.90;;;;;;5067538;28;20077;-67
2022/05/08 00:36:21;;;;;;;6.47;3.10;;;12.30;99.90;;;;;;5070974;28;20404;-67
2022/05/08 00:38:47;;;;;;;9.27;3.88;;;12.30;99.90;;;;;;5069044;28;20040;-67
2022/05/08 00:41:12;;;;;;;11.82;3.72;;;12.20;99.90;;;;;;5070293;28;20037;-67
2022/05/08 00:43:40;;;;;;;7.93;2.97;;;12.30;99.90;;;;;;5068753;28;20515;-69
2022/05/08 00:46:07;;;;;;;6.18;2.33;;;12.20;99.90;;;;;;5071047;28;20043;-67
2022/05/08 00:48:34;;;;;;;7.65;2.80;;;12.20;99.90;;;;;;5070125;28;20025;-67
2022/05/08 00:51:01;;;;;;;6.40;2.63;;;12.20;99.90;;;;;;5069328;28;20392;-67
2022/05/08 00:53:33;;;;;;;6.60;2.65;;;12.20;99.90;;;;;;5068809;28;20032;-67
2022/05/08 00:56:02;;;;;;;8.05;2.58;;;12.20;99.90;;;;;;5066061;28;20029;-67
2022/05/08 00:58:27;;;;;;;10.07;3.03;;;12.10;99.90;;;;;;5071638;28;20422;-67
2022/05/08 01:00:53;;;;;;;9.77;2.53;;;12.10;99.90;;;;;;5069340;28;20109;-67
2022/05/08 01:03:19;;;;;;;9.75;2.65;;;12.00;99.90;;;;;;5069522;28;20037;-67
2022/05/08 01:05:46;;;;;;;8.85;2.65;;;12.00;99.90;;;;;;5069034;28;20037;-67
2022/05/08 01:08:13;;;;;;;8.57;2.50;;;11.90;99.90;;;;;;5069765;28;20059;-67
2022/05/08 01:10:39;;;;;;;16.40;3.55;;;11.90;99.90;;;;;;5067175;28;20028;-67
2022/05/08 01:13:05;;;;;;;12.10;2.58;;;11.80;99.90;;;;;;5069079;28;20039;-67
2022/05/08 01:15:43;;;;;;;9.07;2.35;;;11.80;99.90;;;;;;5069736;28;20101;-67
2022/05/08 01:18:09;;;;;;;15.88;1.67;;;11.70;99.90;;;;;;5068979;28;20089;-67
2022/05/08 01:20:36;;;;;;;11.30;1.92;;;11.60;99.90;;;;;;5068589;28;20036;-67
2022/05/08 01:23:03;;;;;;;16.50;2.38;;;11.60;99.90;;;;;;5068717;28;20031;-68
2022/05/08 01:25:29;;;;;;;13.48;1.98;;;11.60;99.90;;;;;;5069016;28;20655;-68
2022/05/08 01:27:54;;;;;;;14.48;1.85;;;11.50;99.90;;;;;;5068801;28;20038;-67
2022/05/08 01:30:22;;;;;;;9.77;1.80;;;11.40;99.90;;;;;;5069075;28;20107;-67
2022/05/08 01:32:48;;;;;;;12.30;2.03;;;11.40;99.90;;;;;;5066738;28;20032;-67
2022/05/08 01:35:14;;;;;;;13.98;2.22;;;11.40;99.90;;;;;;5069410;28;20508;-67
2022/05/08 01:37:40;;;;;;;10.52;1.75;;;11.40;99.90;;;;;;5068504;28;20040;-67
2022/05/08 01:40:07;;;;;;;14.07;2.25;;;11.40;99.90;;;;;;5067060;28;20063;-67
2022/05/08 01:42:33;;;;;;;23.42;2.63;;;11.30;99.90;;;;;;5068461;28;20075;-67
2022/05/08 01:44:58;;;;;;;16.58;2.88;;;11.20;99.90;;;;;;5067533;28;20025;-67
2022/05/08 01:50:09;;;;;;;13.48;2.25;;;11.10;99.90;;;;;;5065666;28;20035;-67
2022/05/08 01:52:34;;;;;;;10.25;2.03;;;11.00;99.90;;;;;;5068113;28;20036;-67
2022/05/08 01:55:01;;;;;;;8.63;1.88;;;10.90;99.90;;;;;;5068318;28;20518;-67
2022/05/08 01:57:26;;;;;;;11.77;1.83;;;10.90;99.90;;;;;;5069089;28;20067;-66
2022/05/08 01:59:52;;;;;;;10.95;1.98;;;10.90;99.90;;;;;;5067997;28;20059;-67
2022/05/08 02:02:19;;;;;;;9.30;2.45;;;10.90;99.90;;;;;;5068364;28;20052;-67
2022/05/08 02:04:45;;;;;;;16.23;2.70;;;10.80;99.90;;;;;;5067534;28;20503;-67
2022/05/08 02:07:11;;;;;;;11.80;2.08;;;10.80;99.90;;;;;;5067415;28;20040;-67
2022/05/08 02:09:37;;;;;;;13.23;3.50;;;10.70;99.90;;;;;;5067878;28;20047;-68
2022/05/08 02:12:03;;;;;;;15.82;2.80;;;10.70;99.90;;;;;;5067938;28;20032;-67
2022/05/08 02:14:28;;;;;;;6.18;1.80;;;10.60;99.90;;;;;;5068078;28;20467;-67
2022/05/08 02:16:54;;;;;;;8.82;1.60;;;10.60;99.90;;;;;;5066258;28;20116;-67
2022/05/08 02:19:19;;;;;;;14.27;1.70;;;10.50;99.90;;;;;;5062937;28;20423;-67
2022/05/08 02:21:45;;;;;;;14.48;2.53;;;10.50;99.90;;;;;;5066882;28;20446;-67
2022/05/08 02:24:10;;;;;;;14.88;2.05;;;10.40;99.90;;;;;;5067685;28;20127;-67
2022/05/08 02:26:36;;;;;;;13.48;2.40;;;10.40;99.90;;;;;;5068073;28;20041;-67
2022/05/08 02:29:02;;;;;;;7.47;2.03;;;10.30;99.90;;;;;;5067742;28;20094;-67
2022/05/08 02:31:27;;;;;;;15.35;2.05;;;10.30;99.90;;;;;;5068158;28;20723;-67
2022/05/08 02:33:53;;;;;;;9.93;2.58;;;10.20;99.90;;;;;;5066670;28;20048;-67
2022/05/08 02:36:18;;;;;;;11.10;1.80;;;10.20;99.90;;;;;;5063871;28;20094;-67
2022/05/08 02:38:44;;;;;;;16.30;2.58;;;10.20;99.90;;;;;;5066758;28;20055;-67
2022/05/08 02:41:10;;;;;;;12.48;2.13;;;10.10;99.90;;;;;;5067717;28;20037;-67
2022/05/08 02:43:35;;;;;;;27.17;2.45;;;10.10;99.90;;;;;;5066780;28;20040;-67
2022/05/08 02:46:02;;;;;;;10.57;1.88;;;10.00;99.90;;;;;;5067398;28;20059;-67
2022/05/08 02:48:27;;;;;;;14.65;2.10;;;10.00;99.90;;;;;;5067974;28;20047;-67
2022/05/08 02:50:53;;;;;;;21.60;3.53;;;9.90;99.90;;;;;;5067126;28;20044;-67
2022/05/08 02:53:20;;;;;;;14.05;2.08;;;9.90;99.90;;;;;;5066995;28;20400;-67
2022/05/08 02:58:33;;;;;;;11.50;1.90;;;9.90;99.90;;;;;;5065973;28;20071;-69
2022/05/08 03:01:05;;;;;;;17.17;2.35;;;9.90;99.90;;;;;;5067314;28;20035;-66
2022/05/08 03:03:30;;;;;;;17.88;4.00;;;9.80;99.90;;;;;;5067419;28;20123;-66
2022/05/08 03:05:56;;;;;;;17.67;2.28;;;9.70;99.90;;;;;;5067206;28;20107;-67
2022/05/08 03:08:22;;;;;;;22.15;2.65;;;9.70;99.90;;;;;;5067559;28;20039;-67
2022/05/08 03:13:38;;;;;;;20.35;2.03;;;9.70;99.90;;;;;;5065736;28;20031;-65
2022/05/08 03:16:08;;;;;;;17.92;2.45;;;9.70;99.90;;;;;;5067332;28;20101;-66
2022/05/08 03:18:34;;;;;;;24.13;2.20;;;9.70;99.90;;;;;;5067394;28;20078;-68
2022/05/08 03:21:01;;;;;;;16.27;3.03;;;9.60;99.90;;;;;;5067157;28;20098;-65
2022/05/08 03:23:27;;;;;;;13.80;2.17;;;9.60;99.90;;;;;;5067085;28;20443;-66
2022/05/08 03:25:53;;;;;;;11.52;2.63;;;9.50;99.90;;;;;;5066354;28;20036;-65
2022/05/08 03:28:18;;;;;;;19.05;2.70;;;9.50;99.90;;;;;;5066865;28;20236;-68
2022/05/08 03:30:45;;;;;;;20.83;2.10;;;9.50;99.90;;;;;;5066388;28;20028;-66
2022/05/08 03:33:11;;;;;;;16.02;3.28;;;9.40;99.90;;;;;;5066899;28;20033;-66
2022/05/08 03:35:37;;;;;;;17.60;1.83;;;9.40;99.90;;;;;;5067584;28;20040;-65
2022/05/08 03:38:04;;;;;;;23.48;4.10;;;9.40;99.90;;;;;;5067330;28;20067;-66
2022/05/08 03:40:29;;;;;;;14.23;2.40;;;9.30;99.90;;;;;;5067520;28;20030;-65
2022/05/08 03:42:55;;;;;;;12.63;3.67;;;9.40;99.90;;;;;;5066317;28;20365;-67
2022/05/08 03:45:20;;;;;;;10.98;1.42;;;9.40;99.90;;;;;;5067484;28;20082;-66
2022/05/08 03:47:49;;;;;;;14.85;2.17;;;9.40;99.90;;;;;;5066944;28;20565;-68
2022/05/08 03:50:15;;;;;;;19.08;2.47;;;9.30;99.90;;;;;;5059450;28;20841;-67
2022/05/08 03:52:41;;;;;;;23.67;3.20;;;9.20;99.90;;;;;;5066376;28;20044;-67
2022/05/08 03:55:07;;;;;;;21.00;2.20;;;9.20;99.90;;;;;;5067211;28;20495;-66
2022/05/08 03:57:33;;;;;;;19.55;2.45;;;9.20;99.90;;;;;;5067254;28;20028;-66
2022/05/08 03:59:58;;;;;;;16.48;2.03;;;9.20;99.90;;;;;;5066566;28;20477;-65
2022/05/08 04:02:24;;;;;;;13.65;3.20;;;9.10;99.90;;;;;;5066925;28;20425;-66
2022/05/08 04:04:49;;;;;;;17.67;3.08;;;9.10;99.90;;;;;;5066740;28;20029;-66
2022/05/08 04:07:15;;;;;;;23.35;3.30;;;9.10;99.90;;;;;;5065840;28;20048;-65
2022/05/08 04:09:40;;;;;;;15.43;3.03;;;9.10;99.90;;;;;;5070284;28;20106;-65
2022/05/08 04:12:06;;;;;;;15.73;2.28;;;9.10;99.90;;;;;;5070573;28;20032;-67
2022/05/08 04:14:32;;;;;;;14.77;3.03;;;9.10;99.90;;;;;;5070795;28;20063;-66
2022/05/08 04:16:59;;;;;;;21.77;4.13;;;9.00;99.90;;;;;;5069986;28;20064;-68
2022/05/08 04:19:25;;;;;;;12.98;2.22;;;9.10;99.90;;;;;;5071174;28;20035;-66
2022/05/08 04:24:16;;;;;;;22.55;2.53;;;9.10;99.90;;;;;;5070299;28;20032;-68
2022/05/08 04:24:36;;;;;;;17.42;2.45;;;9.10;99.90;;;;;;5070061;28;20040;-66
2022/05/08 04:27:01;;;;;;;21.95;3.03;;;9.00;99.90;;;;;;5070158;28;20033;-65
2022/05/08 04:29:27;;;;;;;18.63;2.58;;;9.00;99.90;;;;;;5070478;28;20123;-66
2022/05/08 04:31:52;;;;;;;20.15;3.17;;;9.00;99.90;;;;;;5070256;28;20035;-65
2022/05/08 04:34:18;;;;;;;17.88;1.92;;;9.00;99.90;;;;;;5069575;28;20106;-69
2022/05/08 04:36:43;;;;;;;14.70;2.08;;;9.10;99.90;;;;;;5069608;28;20029;-66
2022/05/08 04:39:09;;;;;;;14.27;2.42;;;9.10;99.90;;;;;;5068732;28;20032;-69
2022/05/08 04:41:34;;;;;;;16.40;2.20;;;9.10;99.90;;;;;;5070076;28;20043;-65
2022/05/08 04:44:00;;;;;;;21.67;3.08;;;9.10;99.90;;;;;;5069168;28;20083;-66
2022/05/08 04:46:27;;;;;;;12.85;2.72;;;9.10;99.90;;;;;;5070137;28;20381;-67
2022/05/08 04:48:52;;;;;;;18.70;2.60;;;9.10;99.90;;;;;;5069146;28;20531;-66
2022/05/08 04:51:18;;;;;;;17.70;2.20;;;9.10;99.90;;;;;;5069928;28;20050;-67
2022/05/08 04:53:44;;;;;;;14.25;3.17;;;9.20;99.90;;;;;;5068383;28;20062;-66
2022/05/08 04:56:09;;;;;;;17.77;2.75;;;9.20;99.90;;;;;;5070237;28;20040;-65
2022/05/08 04:58:35;;;;;;;8.60;2.28;;;9.20;99.90;;;;;;5069562;28;20476;-67
2022/05/08 05:01:00;;;;;;;17.80;1.55;;;9.20;99.90;;;;;;5069099;28;20066;-65
2022/05/08 05:03:26;;;;;;;16.92;2.78;;;9.30;99.90;;;;;;5067658;28;20484;-65
2022/05/08 05:05:52;;;;;;;16.15;2.00;;;9.40;99.90;;;;;;5068976;28;20036;-69
2022/05/08 05:08:18;;;;;;;14.75;2.00;;;9.40;99.90;;;;;;5069371;28;20032;-69
2022/05/08 05:10:44;;;;;;;14.02;2.45;;;9.40;99.90;;;;;;5067089;28;20024;-66
2022/05/08 05:13:10;;;;;;;15.32;2.33;;;9.40;99.90;;;;;;5069329;28;20480;-66
2022/05/08 05:15:35;;;;;;;15.77;2.13;;;9.40;99.90;;;;;;5072075;28;20059;-66
2022/05/08 05:18:02;;;;;;;17.13;1.85;;;9.50;99.90;;;;;;5077211;28;20033;-68
2022/05/08 05:20:29;;;;;;;11.00;2.40;;;9.60;99.90;;;;;;5076337;28;20036;-66
2022/05/08 05:22:58;;;;;;;25.65;2.80;;;9.60;99.90;;;;;;5070992;28;20546;-66
2022/05/08 05:25:24;;;;;;;10.63;2.05;;;9.60;99.90;;;;;;5070267;28;20126;-66
2022/05/08 05:27:49;;;;;;;20.98;2.28;;;9.70;99.90;;;;;;5068587;28;20497;-66
2022/05/08 05:30:16;;;;;;;12.13;1.75;;;9.80;99.90;;;;;;5069026;28;20043;-65
2022/05/08 05:32:41;;;;;;;17.25;2.50;;;9.90;99.90;;;;;;5067791;28;20444;-65
2022/05/08 05:35:07;;;;;;;30.58;2.60;;;9.90;99.90;;;;;;5068848;28;20021;-66
2022/05/08 05:37:34;;;;;;;10.50;1.88;;;10.00;99.90;;;;;;5069226;28;20040;-66
2022/05/08 05:40:00;;;;;;;20.25;4.00;;;10.10;99.90;;;;;;5068347;28;20024;-66
2022/05/08 05:42:25;;;;;;;13.95;3.15;;;10.20;99.90;;;;;;5067451;28;20408;-70
2022/05/08 05:44:51;;;;;;;16.08;2.50;;;10.20;99.90;;;;;;5067386;28;20412;-70
2022/05/08 05:50:01;;;;;;;13.68;2.10;;;11.00;99.90;;;;;;5065119;28;20039;-66
2022/05/08 05:52:27;;;;;;;8.45;1.55;;;12.00;99.90;;;;;;5066476;28;20036;-66
2022/05/08 05:54:53;;;;;;;8.82;1.17;;;13.10;99.90;;;;;;5066673;28;20024;-66
2022/05/08 05:57:19;;;;;;;19.27;2.80;;;14.40;99.90;;;;;;5068128;28;20095;-66
2022/05/08 05:59:45;;;;;;;11.75;2.40;;;15.60;99.90;;;;;;5066861;28;20108;-69
2022/05/08 06:02:11;;;;;;;7.63;1.45;;;16.50;99.90;;;;;;5067384;28;20033;-67
2022/05/08 06:04:37;;;;;;;12.98;2.53;;;17.40;99.90;;;;;;5066314;28;20031;-70
2022/05/08 06:07:03;;;;;;;5.25;2.15;;;17.80;98.90;;;;;;5066565;28;20201;-66
2022/05/08 06:09:28;;;;;;;8.23;2.50;;;18.30;97.20;;;;;;5067806;28;20730;-72
2022/05/08 06:11:54;;;;;;;8.45;2.28;;;18.80;96.90;;;;;;5067049;28;20044;-69
2022/05/08 06:14:20;;;;;;;8.38;2.15;;;19.20;95.10;;;;;;5067509;28;20456;-67
2022/05/08 06:16:46;;;;;;;7.82;2.13;;;19.60;95.40;;;;;;5067326;28;20557;-71
2022/05/08 06:19:11;;;;;;;12.73;2.40;;;20.40;93.50;;;;;;5067261;28;20052;-66
2022/05/08 06:21:37;;;;;;;12.75;1.92;;;20.20;91.00;;;;;;5066498;28;20074;-68
2022/05/08 06:24:03;;;;;;;11.32;1.70;;;20.60;90.40;;;;;;5066516;28;20508;-67
2022/05/08 06:26:28;;;;;;;8.43;1.70;;;20.90;87.80;;;;;;5063024;28;20051;-68
2022/05/08 06:28:55;;;;;;;10.35;1.80;;;21.00;87.80;;;;;;5065792;28;20041;-68
2022/05/08 06:31:21;;;;;;;14.25;2.42;;;21.10;84.90;;;;;;5065009;28;20484;-68
2022/05/08 06:33:47;;;;;;;7.43;1.40;;;21.30;85.20;;;;;;5064904;28;20511;-69
2022/05/08 06:36:13;;;;;;;7.68;1.55;;;21.50;81.10;;;;;;5066259;28;20032;-70
2022/05/08 06:38:39;;;;;;;10.50;1.55;;;21.30;80.50;;;;;;5065573;28;20063;-68
2022/05/08 06:41:04;;;;;;;7.65;1.95;;;21.30;82.40;;;;;;5062064;28;20033;-68
2022/05/08 06:43:30;;;;;;;10.30;1.77;;;21.20;81.30;;;;;;5066162;28;20056;-66
2022/05/08 06:45:55;;;;;;;9.60;1.88;;;22.00;81.20;;;;;;5065001;28;20041;-70
2022/05/08 06:48:21;;;;;;;18.33;2.45;;;21.80;77.00;;;;;;5066271;28;20119;-67
2022/05/08 06:50:46;;;;;;;5.97;1.65;;;22.40;77.20;;;;;;5065218;28;20647;-70
2022/05/08 06:53:12;;;;;;;7.60;1.80;;;21.90;74.60;;;;;;5065295;28;20060;-69
2022/05/08 06:55:38;;;;;;;5.38;1.58;;;22.00;74.00;;;;;;5065868;28;20124;-71
2022/05/08 06:58:04;;;;;;;13.80;2.35;;;21.50;75.70;;;;;;5063159;28;20036;-69
2022/05/08 07:03:15;;;;;;;7.13;1.67;;;22.60;73.90;;;;;;5064406;28;20039;-68
2022/05/08 07:05:45;;;;;;;5.05;1.50;;;23.00;71.90;;;;;;5065630;28;20476;-68
2022/05/08 07:08:12;;;;;;;18.50;2.20;;;22.70;69.90;;;;;;5066152;28;20033;-70
2022/05/08 07:10:37;;;;;;;16.15;2.28;;;22.70;71.60;;;;;;5065665;28;20032;-72
2022/05/08 07:13:04;;;;;;;18.75;2.42;;;22.00;71.50;;;;;;5064845;28;20508;-71
2022/05/08 07:15:29;;;;;;;7.60;2.08;;;22.10;69.90;;;;;;5065900;28;20036;-68
2022/05/08 07:17:55;;;;;;;8.98;1.92;;;22.10;70.60;;;;;;5064592;28;20403;-69
2022/05/08 07:20:20;;;;;;;8.57;1.85;;;21.60;70.10;;;;;;5065492;28;20044;-68
2022/05/08 07:22:46;;;;;;;7.07;1.98;;;21.10;71.80;;;;;;5064285;28;20558;-69
2022/05/08 07:25:12;;;;;;;5.95;2.00;;;21.10;72.30;;;;;;5065865;28;20610;-70
2022/05/08 07:27:39;;;;;;;12.88;2.75;;;21.10;71.10;;;;;;5064502;28;20120;-71
2022/05/08 07:30:06;;;;;;;6.07;1.48;;;20.70;72.20;;;;;;5064383;28;20240;-68
2022/05/08 07:32:35;;;;;;;9.65;1.77;;;20.70;71.90;;;;;;5061292;28;20028;-68
2022/05/08 07:37:46;;;;;;;10.43;1.70;;;20.30;73.30;;;;;;5062423;28;20406;-67
2022/05/08 07:40:12;;;;;;;10.77;1.65;;;20.20;73.00;;;;;;5065149;28;20024;-69
2022/05/08 07:42:37;;;;;;;5.70;1.83;;;19.20;75.00;;;;;;5066499;28;20043;-69
2022/05/08 07:45:04;;;;;;;8.90;2.08;;;18.20;76.80;;;;;;5068690;28;20032;-72
2022/05/08 07:47:30;;;;;;;7.07;1.15;;;17.60;79.80;;;;;;5069662;28;20373;-67
2022/05/08 07:49:55;;;;;;;9.60;1.50;;;17.20;80.40;;;;;;5068325;28;20035;-68
2022/05/08 07:52:21;;;;;;;7.32;1.10;;;16.80;81.70;;;;;;5065049;28;20037;-68
2022/05/08 07:54:47;;;;;;;7.45;1.27;;;16.60;81.70;;;;;;5067447;28;20056;-69
2022/05/08 07:57:13;;;;;;;8.57;1.05;;;16.30;83.90;;;;;;5069195;28;20537;-69
2022/05/08 07:59:39;;;;;;;10.57;1.60;;;16.40;83.30;;;;;;5068486;28;20049;-68
2022/05/08 08:02:05;;;;;;;7.32;1.45;;;16.20;84.40;;;;;;5069487;28;20396;-68
2022/05/08 08:04:31;;;;;;;10.57;1.98;;;16.50;84.60;;;;;;5065343;28;20028;-69
2022/05/08 08:06:57;;;;;;;8.60;1.17;;;16.40;84.00;;;;;;5068736;28;20041;-69
2022/05/08 08:09:23;;;;;;;7.82;1.13;;;16.60;85.60;;;;;;5069456;28;20089;-68
2022/05/08 08:11:49;;;;;;;10.18;1.70;;;16.60;84.60;;;;;;5068687;28;20037;-69
2022/05/08 08:14:15;;;;;;;13.05;0.88;;;16.60;85.20;;;;;;5069400;28;20052;-68
2022/05/08 08:16:41;;;;;;;3.90;0.88;;;16.90;84.50;;;;;;5068869;28;20500;-68
2022/05/08 08:19:07;;;;;;;5.68;1.38;;;17.10;83.70;;;;;;5068988;28;20028;-68
2022/05/08 08:21:33;;;;;;;11.02;1.50;;;17.20;84.20;;;;;;5069634;28;20059;-69
2022/05/08 08:23:59;;;;;;;6.07;1.70;;;16.90;84.90;;;;;;5064043;28;20499;-68
2022/05/08 08:26:25;;;;;;;9.02;1.50;;;16.50;84.90;;;;;;5069879;28;20103;-68
2022/05/08 08:28:51;;;;;;;4.60;1.10;;;16.40;86.00;;;;;;5068432;28;20045;-68
2022/05/08 08:31:16;;;;;;;8.57;1.80;;;16.40;87.20;;;;;;5069758;28;20037;-68
2022/05/08 08:33:44;;;;;;;3.97;0.93;;;16.30;86.00;;;;;;5067784;28;20044;-71
2022/05/08 08:36:10;;;;;;;5.00;1.00;;;16.30;87.30;;;;;;5069442;28;20423;-68
2022/05/08 08:38:37;;;;;;;6.78;1.50;;;16.20;86.60;;;;;;5068896;28;20036;-68
2022/05/08 08:41:04;;;;;;;7.88;1.23;;;16.30;89.20;;;;;;5065601;28;20055;-69
2022/05/08 08:47:42;;;;;;;5.65;1.08;;;16.30;87.00;;;;;;5063425;28;20033;-71
2022/05/08 08:49:13;;;;;;;6.47;1.17;;;16.00;87.00;;;;;;5059957;28;20031;-68
2022/05/08 08:51:41;;;;;;;10.35;1.40;;;16.00;86.70;;;;;;5057660;28;20047;-71
2022/05/08 08:54:07;;;;;;;7.50;1.05;;;16.20;87.70;;;;;;5059380;28;20068;-67
2022/05/08 08:56:33;;;;;;;6.88;1.20;;;16.40;86.40;;;;;;5065495;28;20037;-69
2022/05/08 08:58:58;;;;;;;6.38;0.90;;;16.40;87.00;;;;;;5058744;28;20082;-70
2022/05/08 09:01:24;;;;;;;7.40;1.30;;;16.40;85.60;;;;;;5061696;28;20128;-69
2022/05/08 09:03:55;;;;;;;8.57;0.90;;;16.50;85.90;;;;;;5056495;28;20040;-69
2022/05/08 09:06:21;;;;;;;6.68;1.15;;;16.50;85.00;;;;;;5055966;28;20048;-69
2022/05/08 09:08:47;;;;;;;8.63;1.27;;;16.50;85.90;;;;;;5063235;28;20040;-70
2022/05/08 09:11:30;;;;;;;6.22;1.48;;;16.50;84.70;;;;;;5063013;28;20424;-69
2022/05/08 09:13:56;;;;;;;4.35;1.17;;;16.60;84.00;;;;;;5055192;28;20091;-69
2022/05/08 09:16:21;;;;;;;6.88;1.25;;;16.60;83.90;;;;;;5062452;28;20026;-69
2022/05/08 09:18:48;;;;;;;6.88;1.67;;;16.60;84.50;;;;;;5062124;28;20122;-69
2022/05/08 09:24:13;;;;;;;7.57;1.13;;;16.60;83.40;;;;;;5059741;28;20119;-70
2022/05/08 09:26:40;;;;;;;7.80;1.15;;;16.50;82.10;;;;;;5062895;28;20161;-70
2022/05/08 09:29:05;;;;;;;3.45;0.55;;;16.70;84.30;;;;;;5061335;28;20036;-69
2022/05/08 09:31:42;;;;;;;3.47;1.10;;;16.70;81.00;;;;;;5059552;28;20048;-67
2022/05/08 09:34:07;;;;;;;2.95;0.63;;;16.70;83.00;;;;;;5058187;28;20036;-68
2022/05/08 09:36:33;;;;;;;7.38;0.95;;;16.60;83.30;;;;;;5060741;28;20036;-68
2022/05/08 09:39:03;;;;;;;4.88;1.00;;;16.40;83.80;;;;;;5058528;28;20121;-68
2022/05/08 09:41:31;;;;;;;10.87;0.70;;;16.40;83.50;;;;;;5062701;28;20052;-68
2022/05/08 09:44:22;;;;;;;9.23;1.13;;;16.40;84.00;;;;;;5060353;28;20401;-69
2022/05/08 09:46:49;;;;;;;4.00;0.77;;;16.40;83.20;;;;;;5062869;28;20466;-67
2022/05/08 09:49:24;;;;;;;6.35;0.80;;;16.40;82.80;;;;;;5058652;28;20429;-67
2022/05/08 09:51:52;;;;;;;3.70;0.95;;;16.40;82.50;;;;;;5060746;28;20033;-68
2022/05/08 09:54:18;;;;;;;5.22;0.80;;;16.60;81.40;;;;;;5056176;28;20033;-68
2022/05/08 09:56:49;;;;;;;7.90;1.48;;;16.50;81.50;;;;;;5057918;28;20756;-69
2022/05/08 09:59:15;;;;;;;4.38;1.00;;;16.50;82.50;;;;;;5058685;28;20040;-68
2022/05/08 10:01:42;;;;;;;4.57;1.10;;;16.60;83.20;;;;;;5062233;28;20381;-69
2022/05/08 10:04:08;;;;;;;6.68;1.45;;;16.70;83.00;;;;;;5060096;28;20081;-68
2022/05/08 10:06:37;;;;;;;6.18;1.10;;;16.80;83.20;;;;;;5066019;28;20048;-68
2022/05/08 10:14:33;;;;;;;6.50;0.75;;;17.10;82.60;;;;;;5063192;28;20054;-69
2022/05/08 10:17:06;;;;;;;8.95;0.90;;;17.10;80.80;;;;;;5064764;28;20396;-69
2022/05/08 10:19:32;;;;;;;3.72;1.23;;;17.20;81.30;;;;;;5065651;28;20041;-68
2022/05/08 10:21:59;;;;;;;3.97;0.70;;;17.30;81.70;;;;;;5065971;28;20035;-68
2022/05/08 10:24:32;;;;;;;8.60;1.42;;;17.30;80.70;;;;;;5064037;28;20037;-68
2022/05/08 10:27:08;;;;;;;6.47;1.42;;;17.50;79.60;;;;;;5063409;28;20037;-68
2022/05/08 10:29:33;;;;;;;3.85;0.68;;;17.40;80.50;;;;;;5063652;28;20029;-68
2022/05/08 10:31:59;;;;;;;4.20;0.73;;;17.40;80.30;;;;;;5064181;28;20029;-68
2022/05/08 10:34:32;;;;;;;4.68;0.70;;;17.40;81.30;;;;;;5066135;28;20112;-68
2022/05/08 10:37:13;;;;;;;9.00;1.42;;;17.20;78.50;;;;;;5064504;28;20056;-67
2022/05/08 10:39:41;;;;;;;;;;;17.10;78.80;;;;;;5064941;28;20053;-68
2022/05/08 10:42:29;;;;;;;5.40;1.02;;;17.20;78.50;;;;;;5066465;28;19912;-68
2022/05/08 10:44:59;;;;;;;6.50;1.05;;;17.20;78.90;;;;;;5065419;28;20045;-68
2022/05/08 10:47:37;;;;;;;3.28;0.68;;;17.20;77.90;;;;;;5066937;28;20036;-68
2022/05/08 10:50:06;;;;;;;4.15;0.65;;;17.30;79.60;;;;;;5065842;28;20043;-69
2022/05/08 10:52:33;;;;;;;6.77;1.00;;;17.40;78.60;;;;;;5066229;28;20032;-68
2022/05/08 10:55:03;;;;;;;5.47;1.10;;;17.50;79.50;;;;;;5065767;28;20029;-68
2022/05/08 10:57:34;;;;;;;10.27;0.85;;;17.40;78.50;;;;;;5065503;28;20040;-68
2022/05/08 11:00:03;;;;;;;;;;;17.40;79.00;;;;;;5065979;28;20039;-67
2022/05/08 11:02:42;;;;;;;8.38;0.73;;;17.60;77.70;;;;;;5066037;28;19920;-68
2022/05/08 11:05:13;;;;;;;2.78;0.57;;;17.50;76.80;;;;;;5066142;28;20040;-68
2022/05/08 11:07:39;;;;;;;;;;;17.50;75.90;;;;;;5067474;28;20052;-67
2022/05/08 11:10:15;;;;;;;6.13;0.70;;;17.30;76.50;;;;;;5066020;28;19916;-68
2022/05/08 11:13:00;;;;;;;7.72;1.00;;;17.30;77.00;;;;;;5064360;28;20028;-71
2022/05/08 11:15:30;;;;;;;4.72;0.73;;;17.40;77.30;;;;;;5064498;28;20033;-68
2022/05/08 11:18:15;;;;;;;5.63;0.90;;;17.50;76.90;;;;;;5066883;28;20024;-68
2022/05/08 11:20:45;;;;;;;6.00;0.73;;;17.60;76.80;;;;;;5058498;28;20032;-68
2022/05/08 11:23:12;;;;;;;2.25;0.60;;;17.60;76.60;;;;;;5063095;28;20032;-67
2022/05/08 11:25:38;;;;;;;4.63;0.88;;;17.50;76.70;;;;;;5064326;28;20116;-67
2022/05/08 11:28:11;;;;;;;6.18;1.05;;;17.50;78.30;;;;;;5065302;28;20064;-68
2022/05/08 11:30:37;;;;;;;5.03;0.60;;;17.40;80.00;;;;;;5065035;28;20059;-68
2022/05/08 11:36:06;;;;;;;5.40;0.80;;;17.30;84.10;;;;;;5059778;28;20031;-68
2022/05/08 11:38:44;;;;;;;6.88;1.08;;;17.30;82.10;;;;;;5061225;28;20064;-67
2022/05/08 11:41:27;;;;;;;4.38;0.68;;;17.40;83.60;;;;;;5062631;28;20063;-67
2022/05/08 11:43:54;;;;;;;5.63;0.80;;;17.30;83.90;;;;;;5061587;28;20025;-68
2022/05/08 11:46:37;;;;;;;5.30;0.65;;;17.30;85.70;;;;;;5065038;28;20032;-68
2022/05/08 11:49:18;;;;;;;6.32;0.95;;;17.40;85.90;;;;;;5059772;28;20052;-67
2022/05/08 11:51:45;;;;;;;7.90;1.08;;;17.40;84.30;;;;;;5063302;28;20115;-68
2022/05/08 11:54:18;;;;;;;5.13;0.75;;;17.30;84.30;;;;;;5063799;28;20500;-67
2022/05/08 11:56:44;;;;;;;5.60;0.88;;;17.20;84.80;;;;;;5064111;28;20039;-68
2022/05/08 11:59:23;;;;;;;2.10;0.57;;;17.10;86.00;;;;;;5064929;28;20033;-68
2022/05/08 12:01:54;;;;;;;4.57;0.70;;;17.10;86.60;;;;;;5054005;28;20146;-67
2022/05/08 12:04:27;;;;;;;5.95;0.68;;;16.90;86.50;;;;;;5060154;28;20519;-68
2022/05/08 12:07:05;;;;;;;4.22;0.82;;;16.80;87.20;;;;;;5054229;28;20059;-68
2022/05/08 12:09:44;;;;;;;3.17;0.70;;;16.80;88.50;;;;;;5058121;28;20032;-67
2022/05/08 12:12:35;;;;;;;3.65;0.60;;;16.90;88.00;;;;;;5054696;28;20043;-67
2022/05/08 12:15:07;;;;;;;2.20;0.43;;;16.80;88.60;;;;;;5054230;28;22820;-67
2022/05/08 12:17:44;;;;;;;2.40;0.70;;;16.90;89.00;;;;;;5059244;28;20045;-67
2022/05/08 12:20:14;;;;;;;4.22;0.55;;;16.80;88.20;;;;;;5059341;28;20087;-67
2022/05/08 12:22:41;;;;;;;9.55;0.90;;;16.70;87.90;;;;;;5050638;28;20044;-67
2022/05/08 12:25:08;;;;;;;6.47;0.77;;;16.60;89.60;;;;;;5056416;28;20040;-66
2022/05/08 12:27:34;;;;;;;4.85;0.90;;;16.60;89.20;;;;;;5056863;28;20070;-67
2022/05/08 12:30:01;;;;;;;6.72;1.02;;;16.70;88.90;;;;;;5058355;28;20102;-68
2022/05/08 12:32:27;;;;;;;8.43;1.15;;;16.80;89.80;;;;;;5059272;28;20050;-67
2022/05/08 12:34:54;;;;;;;2.58;0.70;;;16.80;89.70;;;;;;5061468;28;20029;-67
2022/05/08 12:37:21;;;;;;;7.00;0.68;;;16.70;88.20;;;;;;5059463;28;20028;-67
2022/05/08 12:39:46;;;;;;;3.17;0.47;;;16.70;88.30;;;;;;5058133;28;20025;-69
2022/05/08 12:42:12;;;;;;;5.95;0.75;;;16.70;89.90;;;;;;5062197;28;20028;-67
2022/05/08 12:44:39;;;;;;;3.10;0.70;;;16.70;89.80;;;;;;5059721;28;20111;-67
2022/05/08 12:47:09;;;;;;;7.15;0.88;;;16.70;89.70;;;;;;5064979;28;20500;-68
2022/05/08 12:49:35;;;;;;;;;;;16.70;90.00;;;;;;5060055;28;20079;-67
2022/05/08 12:52:03;;;;;;;8.90;0.85;;;16.80;90.00;;;;;;5060328;28;19917;-67
2022/05/08 12:54:28;;;;;;;8.13;1.27;;;16.70;89.70;;;;;;5058917;28;20066;-67
2022/05/08 12:56:54;;;;;;;5.30;1.10;;;16.60;90.00;;;;;;5060787;28;20102;-68
2022/05/08 13:02:04;;;;;;;8.85;1.13;;;16.60;89.70;;;;;;5059570;28;20036;-67
2022/05/08 13:04:30;;;;;;;1.95;0.60;;;16.70;89.90;;;;;;5060611;28;20036;-68
2022/05/08 13:06:56;;;;;;;6.20;0.70;;;16.70;90.00;;;;;;5058730;28;20127;-67
2022/05/08 13:09:22;;;;;;;4.25;0.70;;;16.80;90.00;;;;;;5059860;28;20488;-67
2022/05/08 13:11:48;;;;;;;4.47;1.05;;;16.80;90.10;;;;;;5058656;28;20040;-68
2022/05/08 13:14:14;;;;;;;3.08;0.80;;;16.80;90.20;;;;;;5057256;28;20060;-67
2022/05/08 13:16:40;;;;;;;9.20;1.33;;;16.80;90.10;;;;;;5062178;28;20082;-68
2022/05/08 13:19:06;;;;;;;2.95;0.57;;;16.70;90.00;;;;;;5059110;28;20120;-68
2022/05/08 13:21:32;;;;;;;8.30;1.05;;;16.70;90.20;;;;;;5062070;28;20090;-68